sensor_id;sensor_type;location;lat;lon;timestamp;pressure;altitude;pressure_sealevel;temperature;humidity
54948;BME280;41113;41.882;12.530;2023-01-16T00:01:54;100554.81;;;12.14;94.48
54948;BME280;41113;41.882;12.530;2023-01-16T00:04:21;100551.13;;;12.15;94.38
54948;BME280;41113;41.882;12.530;2023-01-16T00:06:46;100547.75;;;12.13;94.55
54948;BME280;41113;41.882;12.530;2023-01-16T00:09:12;100545.75;;;12.15;94.41
54948;BME280;41113;41.882;12.530;2023-01-16T00:11:38;100532.44;;;12.14;94.47
54948;BME280;41113;41.882;12.530;2023-01-16T00:14:04;100527.91;;;12.14;94.59
54948;BME280;41113;41.882;12.530;2023-01-16T00:16:29;100513.44;;;12.15;94.50
54948;BME280;41113;41.882;12.530;2023-01-16T00:18:55;100519.13;;;12.12;94.62
54948;BME280;41113;41.882;12.530;2023-01-16T00:21:22;100517.13;;;12.14;94.68
54948;BME280;41113;41.882;12.530;2023-01-16T00:23:52;100509.06;;;12.14;94.79
54948;BME280;41113;41.882;12.530;2023-01-16T00:26:18;100493.91;;;12.13;95.41
54948;BME280;41113;41.882;12.530;2023-01-16T00:28:43;100490.22;;;12.14;95.58
54948;BME280;41113;41.882;12.530;2023-01-16T00:31:09;100490.22;;;12.14;96.19
54948;BME280;41113;41.882;12.530;2023-01-16T00:33:35;100485.81;;;12.13;96.62
54948;BME280;41113;41.882;12.530;2023-01-16T00:36:01;100484.97;;;12.13;97.00
54948;BME280;41113;41.882;12.530;2023-01-16T00:38:26;100477.75;;;12.13;96.84
54948;BME280;41113;41.882;12.530;2023-01-16T00:40:52;100477.75;;;12.13;96.79
54948;BME280;41113;41.882;12.530;2023-01-16T00:43:18;100473.22;;;12.14;96.76
54948;BME280;41113;41.882;12.530;2023-01-16T00:45:43;100467.84;;;12.14;97.13
54948;BME280;41113;41.882;12.530;2023-01-16T00:48:09;100466.97;;;12.13;98.12
54948;BME280;41113;41.882;12.530;2023-01-16T00:50:34;100460.91;;;12.11;98.81
54948;BME280;41113;41.882;12.530;2023-01-16T00:53:00;100460.06;;;12.11;98.70
54948;BME280;41113;41.882;12.530;2023-01-16T00:55:25;100456.53;;;12.10;98.49
54948;BME280;41113;41.882;12.530;2023-01-16T00:57:50;100451.97;;;12.11;98.76
54948;BME280;41113;41.882;12.530;2023-01-16T01:00:19;100455.53;;;12.11;98.78
54948;BME280;41113;41.882;12.530;2023-01-16T01:02:47;100440.38;;;12.10;98.64
54948;BME280;41113;41.882;12.530;2023-01-16T01:05:13;100438.69;;;12.09;98.54
54948;BME280;41113;41.882;12.530;2023-01-16T01:07:39;100440.38;;;12.10;98.33
54948;BME280;41113;41.882;12.530;2023-01-16T01:10:04;100435.84;;;12.11;98.46
54948;BME280;41113;41.882;12.530;2023-01-16T01:12:30;100425.06;;;12.11;98.28
54948;BME280;41113;41.882;12.530;2023-01-16T01:14:55;100422.53;;;12.09;98.45
54948;BME280;41113;41.882;12.530;2023-01-16T01:17:20;100419.84;;;12.09;98.60
54948;BME280;41113;41.882;12.530;2023-01-16T01:19:46;100405.38;;;12.10;98.26
54948;BME280;41113;41.882;12.530;2023-01-16T01:22:11;100418.00;;;12.10;98.31
54948;BME280;41113;41.882;12.530;2023-01-16T01:24:37;100418.84;;;12.10;98.29
54948;BME280;41113;41.882;12.530;2023-01-16T01:27:02;100409.91;;;12.10;98.64
54948;BME280;41113;41.882;12.530;2023-01-16T01:29:28;100409.06;;;12.09;98.45
54948;BME280;41113;41.882;12.530;2023-01-16T01:31:57;100403.69;;;12.09;98.29
54948;BME280;41113;41.882;12.530;2023-01-16T01:34:22;100398.31;;;12.09;98.49
54948;BME280;41113;41.882;12.530;2023-01-16T01:36:48;100392.91;;;12.09;98.64
54948;BME280;41113;41.882;12.530;2023-01-16T01:39:13;100391.91;;;12.10;98.85
54948;BME280;41113;41.882;12.530;2023-01-16T01:41:38;100378.47;;;12.10;98.79
54948;BME280;41113;41.882;12.530;2023-01-16T01:44:42;100353.22;;;12.11;98.70
54948;BME280;41113;41.882;12.530;2023-01-16T01:47:10;100329.00;;;12.11;98.53
54948;BME280;41113;41.882;12.530;2023-01-16T01:49:36;100337.78;;;12.13;98.15
54948;BME280;41113;41.882;12.530;2023-01-16T01:52:03;100342.00;;;12.16;98.10
54948;BME280;41113;41.882;12.530;2023-01-16T01:54:36;100327.53;;;12.17;97.83
54948;BME280;41113;41.882;12.530;2023-01-16T01:57:06;100313.06;;;12.18;97.63
54948;BME280;41113;41.882;12.530;2023-01-16T01:59:38;100308.53;;;12.19;97.75
54948;BME280;41113;41.882;12.530;2023-01-16T02:02:06;100313.91;;;12.19;98.02
54948;BME280;41113;41.882;12.530;2023-01-16T02:04:36;100316.44;;;12.20;98.14
54948;BME280;41113;41.882;12.530;2023-01-16T02:07:08;100314.75;;;12.19;98.34
54948;BME280;41113;41.882;12.530;2023-01-16T02:09:36;100304.00;;;12.19;98.28
54948;BME280;41113;41.882;12.530;2023-01-16T02:12:14;100303.00;;;12.20;98.42
54948;BME280;41113;41.882;12.530;2023-01-16T02:14:42;100305.69;;;12.20;98.80
54948;BME280;41113;41.882;12.530;2023-01-16T02:17:12;100292.06;;;12.22;99.48
54948;BME280;41113;41.882;12.530;2023-01-16T02:39:50;100283.47;;;12.00;100.00
54948;BME280;41113;41.882;12.530;2023-01-16T02:45:28;100290.16;;;11.96;100.00
54948;BME280;41113;41.882;12.530;2023-01-16T02:56:05;100291.16;;;11.95;100.00
54948;BME280;41113;41.882;12.530;2023-01-16T02:58:43;100291.47;;;11.92;100.00
54948;BME280;41113;41.882;12.530;2023-01-16T03:01:10;100300.56;;;11.91;100.00
54948;BME280;41113;41.882;12.530;2023-01-16T03:09:34;100288.09;;;11.90;100.00
54948;BME280;41113;41.882;12.530;2023-01-16T03:15:26;100276.50;;;11.90;100.00
54948;BME280;41113;41.882;12.530;2023-01-16T03:20:57;100272.88;;;11.81;100.00
54948;BME280;41113;41.882;12.530;2023-01-16T03:26:34;100271.47;;;11.77;100.00
54948;BME280;41113;41.882;12.530;2023-01-16T03:29:17;100260.72;;;11.77;100.00
54948;BME280;41113;41.882;12.530;2023-01-16T03:31:50;100248.41;;;11.74;100.00
54948;BME280;41113;41.882;12.530;2023-01-16T03:34:32;100243.19;;;11.73;100.00
54948;BME280;41113;41.882;12.530;2023-01-16T03:40:00;100244.09;;;11.64;100.00
54948;BME280;41113;41.882;12.530;2023-01-16T03:42:40;100220.88;;;11.63;100.00
54948;BME280;41113;41.882;12.530;2023-01-16T03:45:12;100222.72;;;11.62;100.00
54948;BME280;41113;41.882;12.530;2023-01-16T03:47:46;100218.50;;;11.60;100.00
54948;BME280;41113;41.882;12.530;2023-01-16T03:50:18;100210.75;;;11.57;100.00
54948;BME280;41113;41.882;12.530;2023-01-16T03:52:50;100214.44;;;11.56;100.00
54948;BME280;41113;41.882;12.530;2023-01-16T03:55:23;100211.06;;;11.53;100.00
54948;BME280;41113;41.882;12.530;2023-01-16T03:57:54;100204.31;;;11.49;100.00
54948;BME280;41113;41.882;12.530;2023-01-16T04:00:21;100208.00;;;11.48;100.00
54948;BME280;41113;41.882;12.530;2023-01-16T04:02:54;100204.31;;;11.49;100.00
54948;BME280;41113;41.882;12.530;2023-01-16T04:05:32;100202.31;;;11.51;100.00
54948;BME280;41113;41.882;12.530;2023-01-16T04:08:12;100205.00;;;11.51;100.00
54948;BME280;41113;41.882;12.530;2023-01-16T04:10:40;100199.63;;;11.51;100.00
54948;BME280;41113;41.882;12.530;2023-01-16T04:13:09;100202.31;;;11.51;100.00
54948;BME280;41113;41.882;12.530;2023-01-16T04:15:39;100204.00;;;11.52;100.00
54948;BME280;41113;41.882;12.530;2023-01-16T04:18:07;100204.00;;;11.52;100.00
54948;BME280;41113;41.882;12.530;2023-01-16T04:20:33;100191.56;;;11.51;100.00
54948;BME280;41113;41.882;12.530;2023-01-16T04:23:01;100191.56;;;11.51;100.00
54948;BME280;41113;41.882;12.530;2023-01-16T04:25:26;100198.63;;;11.52;100.00
54948;BME280;41113;41.882;12.530;2023-01-16T04:27:51;100198.47;;;11.54;100.00
54948;BME280;41113;41.882;12.530;2023-01-16T04:30:17;100190.56;;;11.52;100.00
54948;BME280;41113;41.882;12.530;2023-01-16T04:32:42;100195.25;;;11.50;100.00
54948;BME280;41113;41.882;12.530;2023-01-16T04:35:08;100178.09;;;11.51;100.00
54948;BME280;41113;41.882;12.530;2023-01-16T04:37:34;100180.09;;;11.49;100.00
54948;BME280;41113;41.882;12.530;2023-01-16T04:40:00;100170.34;;;11.48;100.00
54948;BME280;41113;41.882;12.530;2023-01-16T04:42:26;100177.41;;;11.49;100.00
54948;BME280;41113;41.882;12.530;2023-01-16T04:44:51;100172.03;;;11.49;100.00
54948;BME280;41113;41.882;12.530;2023-01-16T04:47:17;100172.03;;;11.49;100.00
54948;BME280;41113;41.882;12.530;2023-01-16T04:49:42;100162.13;;;11.50;100.00
54948;BME280;41113;41.882;12.530;2023-01-16T04:52:08;100170.03;;;11.51;100.00
54948;BME280;41113;41.882;12.530;2023-01-16T04:54:34;100160.97;;;11.52;100.00
54948;BME280;41113;41.882;12.530;2023-01-16T04:56:59;100155.59;;;11.52;100.00
54948;BME280;41113;41.882;12.530;2023-01-16T04:59:26;100158.13;;;11.54;100.00
54948;BME280;41113;41.882;12.530;2023-01-16T05:01:52;100147.22;;;11.56;100.00
54948;BME280;41113;41.882;12.530;2023-01-16T05:04:17;100140.00;;;11.56;100.00
54948;BME280;41113;41.882;12.530;2023-01-16T05:06:43;100134.59;;;11.56;100.00
54948;BME280;41113;41.882;12.530;2023-01-16T05:09:09;100138.81;;;11.59;99.64
54948;BME280;41113;41.882;12.530;2023-01-16T05:11:35;100135.13;;;11.60;99.24
54948;BME280;41113;41.882;12.530;2023-01-16T05:14:01;100135.97;;;11.60;98.86
54948;BME280;41113;41.882;12.530;2023-01-16T05:16:26;100143.03;;;11.61;99.06
54948;BME280;41113;41.882;12.530;2023-01-16T05:18:52;100131.44;;;11.61;98.69
54948;BME280;41113;41.882;12.530;2023-01-16T05:21:17;100135.97;;;11.60;98.11
54948;BME280;41113;41.882;12.530;2023-01-16T05:23:43;100137.66;;;11.61;97.85
54948;BME280;41113;41.882;12.530;2023-01-16T05:26:08;100132.28;;;11.61;97.45
54948;BME280;41113;41.882;12.530;2023-01-16T05:28:35;100132.28;;;11.61;96.99
54948;BME280;41113;41.882;12.530;2023-01-16T05:31:01;100131.75;;;11.58;96.29
54948;BME280;41113;41.882;12.530;2023-01-16T05:33:27;100142.19;;;11.61;96.68
54948;BME280;41113;41.882;12.530;2023-01-16T05:35:52;100148.59;;;11.60;96.45
54948;BME280;41113;41.882;12.530;2023-01-16T05:38:19;100151.97;;;11.62;96.61
54948;BME280;41113;41.882;12.530;2023-01-16T05:40:44;100150.28;;;11.61;96.18
54948;BME280;41113;41.882;12.530;2023-01-16T05:43:10;100157.66;;;11.59;94.80
54948;BME280;41113;41.882;12.530;2023-01-16T05:45:41;100164.72;;;11.60;95.48
54948;BME280;41113;41.882;12.530;2023-01-16T05:48:07;100152.13;;;11.60;95.31
54948;BME280;41113;41.882;12.530;2023-01-16T05:50:32;100156.66;;;11.60;95.21
54948;BME280;41113;41.882;12.530;2023-01-16T05:52:58;100151.28;;;11.60;95.07
54948;BME280;41113;41.882;12.530;2023-01-16T05:55:24;100150.59;;;11.58;95.11
54948;BME280;41113;41.882;12.530;2023-01-16T05:57:50;100156.97;;;11.57;95.01
54948;BME280;41113;41.882;12.530;2023-01-16T06:00:16;100155.28;;;11.56;94.90
54948;BME280;41113;41.882;12.530;2023-01-16T06:02:42;100154.59;;;11.53;94.88
54948;BME280;41113;41.882;12.530;2023-01-16T06:05:08;100157.59;;;11.50;94.29
54948;BME280;41113;41.882;12.530;2023-01-16T06:07:34;100155.91;;;11.49;94.00
54948;BME280;41113;41.882;12.530;2023-01-16T06:10:00;100152.22;;;11.50;92.49
54948;BME280;41113;41.882;12.530;2023-01-16T06:12:26;100156.59;;;11.51;91.89
54948;BME280;41113;41.882;12.530;2023-01-16T06:14:51;100152.91;;;11.52;90.30
54948;BME280;41113;41.882;12.530;2023-01-16T06:17:17;100151.22;;;11.51;89.95
54948;BME280;41113;41.882;12.530;2023-01-16T06:19:44;100150.22;;;11.52;91.28
54948;BME280;41113;41.882;12.530;2023-01-16T06:22:11;100148.53;;;11.51;89.93
54948;BME280;41113;41.882;12.530;2023-01-16T06:24:36;100145.00;;;11.51;89.61
54948;BME280;41113;41.882;12.530;2023-01-16T06:27:02;100151.38;;;11.50;88.94
54948;BME280;41113;41.882;12.530;2023-01-16T06:29:28;100141.47;;;11.50;89.45
54948;BME280;41113;41.882;12.530;2023-01-16T06:31:53;100143.16;;;11.51;89.56
54948;BME280;41113;41.882;12.530;2023-01-16T06:34:19;100143.16;;;11.51;88.46
54948;BME280;41113;41.882;12.530;2023-01-16T06:36:44;100148.22;;;11.54;88.21
54948;BME280;41113;41.882;12.530;2023-01-16T06:39:13;100144.84;;;11.52;86.23
54948;BME280;41113;41.882;12.530;2023-01-16T06:41:38;100144.53;;;11.56;88.21
54948;BME280;41113;41.882;12.530;2023-01-16T06:44:03;100141.16;;;11.53;87.01
54948;BME280;41113;41.882;12.530;2023-01-16T06:46:29;100139.47;;;11.52;87.04
54948;BME280;41113;41.882;12.530;2023-01-16T06:48:54;100142.84;;;11.54;87.11
54948;BME280;41113;41.882;12.530;2023-01-16T06:51:20;100147.91;;;11.58;86.79
54948;BME280;41113;41.882;12.530;2023-01-16T06:53:45;100143.53;;;11.57;84.56
54948;BME280;41113;41.882;12.530;2023-01-16T06:56:11;100142.53;;;11.58;85.58
54948;BME280;41113;41.882;12.530;2023-01-16T06:58:36;100138.13;;;11.57;84.75
54948;BME280;41113;41.882;12.530;2023-01-16T07:01:02;100135.44;;;11.57;86.03
54948;BME280;41113;41.882;12.530;2023-01-16T07:03:27;100122.31;;;11.53;84.38
54948;BME280;41113;41.882;12.530;2023-01-16T07:05:52;100125.16;;;11.52;85.33
54948;BME280;41113;41.882;12.530;2023-01-16T07:08:18;100128.69;;;11.52;85.72
54948;BME280;41113;41.882;12.530;2023-01-16T07:10:43;100122.16;;;11.55;85.76
54948;BME280;41113;41.882;12.530;2023-01-16T07:13:09;100123.00;;;11.56;85.24
54948;BME280;41113;41.882;12.530;2023-01-16T07:15:36;100130.22;;;11.55;84.78
54948;BME280;41113;41.882;12.530;2023-01-16T07:18:24;100126.38;;;11.58;85.07
54948;BME280;41113;41.882;12.530;2023-01-16T07:21:12;100126.38;;;11.58;85.01
54948;BME280;41113;41.882;12.530;2023-01-16T07:24:03;100122.31;;;11.53;84.35
54948;BME280;41113;41.882;12.530;2023-01-16T07:26:32;100118.63;;;11.54;84.96
54948;BME280;41113;41.882;12.530;2023-01-16T07:28:58;100120.31;;;11.56;85.08
54948;BME280;41113;41.882;12.530;2023-01-16T07:31:25;100121.31;;;11.54;83.88
54948;BME280;41113;41.882;12.530;2023-01-16T07:33:51;100116.63;;;11.57;84.23
54948;BME280;41113;41.882;12.530;2023-01-16T07:36:16;100117.16;;;11.60;83.61
54948;BME280;41113;41.882;12.530;2023-01-16T07:38:42;100115.00;;;11.64;83.10
54948;BME280;41113;41.882;12.530;2023-01-16T07:41:07;100118.38;;;11.66;83.38
54948;BME280;41113;41.882;12.530;2023-01-16T07:43:33;100113.84;;;11.66;82.92
54948;BME280;41113;41.882;12.530;2023-01-16T07:45:58;100109.28;;;11.67;80.49
54948;BME280;41113;41.882;12.530;2023-01-16T07:48:24;100113.50;;;11.69;81.26
54948;BME280;41113;41.882;12.530;2023-01-16T07:50:59;100097.63;;;11.76;81.05
54948;BME280;41113;41.882;12.530;2023-01-16T07:53:27;100101.69;;;11.80;81.79
54948;BME280;41113;41.882;12.530;2023-01-16T07:55:55;100103.56;;;11.79;80.45
54948;BME280;41113;41.882;12.530;2023-01-16T07:58:21;100102.91;;;11.86;80.67
54948;BME280;41113;41.882;12.530;2023-01-16T08:00:47;100103.78;;;11.94;80.84
54948;BME280;41113;41.882;12.530;2023-01-16T08:03:14;100091.03;;;11.96;78.91
54948;BME280;41113;41.882;12.530;2023-01-16T08:05:41;100088.34;;;11.96;77.44
54948;BME280;41113;41.882;12.530;2023-01-16T08:08:09;100089.69;;;12.00;75.43
54948;BME280;41113;41.882;12.530;2023-01-16T08:10:35;100094.63;;;12.05;78.45
54948;BME280;41113;41.882;12.530;2023-01-16T08:13:01;100097.84;;;12.08;77.62
54948;BME280;41113;41.882;12.530;2023-01-16T08:15:27;100099.72;;;12.16;78.34
54948;BME280;41113;41.882;12.530;2023-01-16T08:17:53;100093.50;;;12.15;77.59
54948;BME280;41113;41.882;12.530;2023-01-16T08:20:19;100082.72;;;12.15;75.79
54948;BME280;41113;41.882;12.530;2023-01-16T08:22:46;100087.13;;;12.25;76.91
54948;BME280;41113;41.882;12.530;2023-01-16T08:25:13;100082.94;;;12.30;77.08
54948;BME280;41113;41.882;12.530;2023-01-16T08:27:39;100092.53;;;12.33;76.62
54948;BME280;41113;41.882;12.530;2023-01-16T08:30:06;100081.59;;;12.34;75.12
54948;BME280;41113;41.882;12.530;2023-01-16T08:32:31;100084.00;;;12.37;74.32
54948;BME280;41113;41.882;12.530;2023-01-16T08:34:57;100083.69;;;12.40;75.75
54948;BME280;41113;41.882;12.530;2023-01-16T08:37:22;100083.69;;;12.49;76.30
54948;BME280;41113;41.882;12.530;2023-01-16T08:39:47;100073.78;;;12.57;75.98
54948;BME280;41113;41.882;12.530;2023-01-16T08:42:13;100073.50;;;12.68;73.32
54948;BME280;41113;41.882;12.530;2023-01-16T08:44:57;100075.19;;;12.86;74.54
54948;BME280;41113;41.882;12.530;2023-01-16T08:47:41;100073.56;;;13.01;74.50
54948;BME280;41113;41.882;12.530;2023-01-16T08:50:25;100070.19;;;13.15;73.42
54948;BME280;41113;41.882;12.530;2023-01-16T08:53:10;100071.22;;;13.22;73.15
54948;BME280;41113;41.882;12.530;2023-01-16T08:55:35;100073.25;;;13.28;73.11
54948;BME280;41113;41.882;12.530;2023-01-16T08:58:01;100071.88;;;13.32;73.11
54948;BME280;41113;41.882;12.530;2023-01-16T09:00:27;100077.66;;;13.37;72.50
54948;BME280;41113;41.882;12.530;2023-01-16T09:02:53;100075.59;;;13.48;72.95
54948;BME280;41113;41.882;12.530;2023-01-16T09:05:20;100070.38;;;13.54;72.37
54948;BME280;41113;41.882;12.530;2023-01-16T09:07:45;100067.16;;;13.59;72.54
54948;BME280;41113;41.882;12.530;2023-01-16T09:10:11;100056.34;;;13.59;72.55
54948;BME280;41113;41.882;12.530;2023-01-16T09:12:38;100064.97;;;13.54;70.22
54948;BME280;41113;41.882;12.530;2023-01-16T09:15:23;100062.78;;;13.50;71.53
54948;BME280;41113;41.882;12.530;2023-01-16T09:17:48;100065.47;;;13.50;71.21
54948;BME280;41113;41.882;12.530;2023-01-16T09:20:14;100070.22;;;13.48;71.21
54948;BME280;41113;41.882;12.530;2023-01-16T09:22:40;100064.47;;;13.51;71.79
54948;BME280;41113;41.882;12.530;2023-01-16T09:25:06;100074.25;;;13.44;68.36
54948;BME280;41113;41.882;12.530;2023-01-16T09:27:31;100069.88;;;13.43;70.89
54948;BME280;41113;41.882;12.530;2023-01-16T09:29:57;100074.59;;;13.41;70.84
54948;BME280;41113;41.882;12.530;2023-01-16T09:32:22;100066.50;;;13.32;69.87
54948;BME280;41113;41.882;12.530;2023-01-16T09:34:48;100070.72;;;13.27;68.16
54948;BME280;41113;41.882;12.530;2023-01-16T09:37:14;100059.44;;;13.23;65.56
54948;BME280;41113;41.882;12.530;2023-01-16T09:39:39;100062.28;;;13.22;67.12
54948;BME280;41113;41.882;12.530;2023-01-16T09:45:16;100074.25;;;13.27;66.13
54948;BME280;41113;41.882;12.530;2023-01-16T09:47:47;100069.03;;;13.26;65.08
54948;BME280;41113;41.882;12.530;2023-01-16T09:50:57;100078.47;;;13.30;65.73
54948;BME280;41113;41.882;12.530;2023-01-16T09:53:05;100068.84;;;13.27;67.22
54948;BME280;41113;41.882;12.530;2023-01-16T09:55:51;100056.38;;;13.26;68.22
54948;BME280;41113;41.882;12.530;2023-01-16T09:58:39;100055.38;;;13.19;67.66
54948;BME280;41113;41.882;12.530;2023-01-16T10:01:06;100041.72;;;13.13;65.24
54948;BME280;41113;41.882;12.530;2023-01-16T10:03:33;100046.59;;;13.09;67.83
54948;BME280;41113;41.882;12.530;2023-01-16T10:08:45;100026.72;;;13.10;67.50
54948;BME280;41113;41.882;12.530;2023-01-16T10:11:40;100038.69;;;13.07;66.19
54948;BME280;41113;41.882;12.530;2023-01-16T10:27:55;100005.81;;;13.45;63.89
54948;BME280;41113;41.882;12.530;2023-01-16T10:30:37;100011.56;;;13.42;64.22
54948;BME280;41113;41.882;12.530;2023-01-16T10:33:24;100006.00;;;13.35;64.23
54948;BME280;41113;41.882;12.530;2023-01-16T10:35:53;100010.22;;;13.37;65.89
54948;BME280;41113;41.882;12.530;2023-01-16T10:38:35;100011.22;;;13.45;65.38
54948;BME280;41113;41.882;12.530;2023-01-16T10:41:14;99995.53;;;13.48;62.46
54948;BME280;41113;41.882;12.530;2023-01-16T10:44:56;99992.47;;;13.51;63.69
54948;BME280;41113;41.882;12.530;2023-01-16T10:47:15;99986.91;;;13.53;64.68
54948;BME280;41113;41.882;12.530;2023-01-16T10:50:02;99987.25;;;13.50;62.21
54948;BME280;41113;41.882;12.530;2023-01-16T10:52:28;99978.50;;;13.48;61.64
54948;BME280;41113;41.882;12.530;2023-01-16T10:54:56;100000.06;;;13.48;63.48
54948;BME280;41113;41.882;12.530;2023-01-16T10:57:23;99996.22;;;13.42;62.19
54948;BME280;41113;41.882;12.530;2023-01-16T10:59:53;99995.03;;;13.45;58.59
54948;BME280;41113;41.882;12.530;2023-01-16T11:02:33;99989.97;;;13.42;59.12
54948;BME280;41113;41.882;12.530;2023-01-16T11:04:59;99993.03;;;13.38;58.67
54948;BME280;41113;41.882;12.530;2023-01-16T11:07:28;99978.00;;;13.44;60.87
54948;BME280;41113;41.882;12.530;2023-01-16T11:09:54;99972.59;;;13.44;61.39
54948;BME280;41113;41.882;12.530;2023-01-16T11:12:26;99966.22;;;13.37;62.01
54948;BME280;41113;41.882;12.530;2023-01-16T11:15:22;99956.63;;;13.34;60.87
54948;BME280;41113;41.882;12.530;2023-01-16T11:18:26;99967.38;;;13.43;61.94
54948;BME280;41113;41.882;12.530;2023-01-16T11:21:12;99958.94;;;13.46;63.32
54948;BME280;41113;41.882;12.530;2023-01-16T11:23:42;99949.50;;;13.50;63.87
54948;BME280;41113;41.882;12.530;2023-01-16T11:26:09;99943.25;;;13.49;63.35
54948;BME280;41113;41.882;12.530;2023-01-16T11:28:36;99931.13;;;13.45;63.80
54948;BME280;41113;41.882;12.530;2023-01-16T11:31:11;99937.84;;;13.49;64.70
54948;BME280;41113;41.882;12.530;2023-01-16T11:33:40;99928.25;;;13.47;65.00
54948;BME280;41113;41.882;12.530;2023-01-16T11:36:08;99933.00;;;13.36;65.29
54948;BME280;41113;41.882;12.530;2023-01-16T11:38:37;99916.66;;;13.30;64.99
54948;BME280;41113;41.882;12.530;2023-01-16T11:41:05;99914.47;;;13.25;63.46
54948;BME280;41113;41.882;12.530;2023-01-16T11:43:34;99908.59;;;13.22;65.21
54948;BME280;41113;41.882;12.530;2023-01-16T11:46:40;99908.41;;;13.15;65.29
54948;BME280;41113;41.882;12.530;2023-01-16T11:49:17;99911.81;;;13.17;65.63
54948;BME280;41113;41.882;12.530;2023-01-16T11:51:43;99902.72;;;13.18;65.92
54948;BME280;41113;41.882;12.530;2023-01-16T11:54:15;99894.13;;;13.06;66.62
54948;BME280;41113;41.882;12.530;2023-01-16T12:14:08;99891.75;;;13.12;69.07
54948;BME280;41113;41.882;12.530;2023-01-16T12:39:47;99847.66;;;13.52;67.74
54948;BME280;41113;41.882;12.530;2023-01-16T12:50:55;99819.94;;;13.27;68.98
54948;BME280;41113;41.882;12.530;2023-01-16T12:58:44;99820.19;;;13.01;71.09
54948;BME280;41113;41.882;12.530;2023-01-16T13:01:25;99812.75;;;13.03;71.40
54948;BME280;41113;41.882;12.530;2023-01-16T13:04:12;99815.09;;;13.06;71.65
54948;BME280;41113;41.882;12.530;2023-01-16T13:06:47;99811.41;;;12.99;71.81
54948;BME280;41113;41.882;12.530;2023-01-16T13:12:21;99801.84;;;12.88;72.53
54948;BME280;41113;41.882;12.530;2023-01-16T13:15:11;99805.72;;;12.86;72.74
54948;BME280;41113;41.882;12.530;2023-01-16T13:17:48;99797.66;;;12.77;73.07
54948;BME280;41113;41.882;12.530;2023-01-16T13:20:16;99793.31;;;12.68;72.67
54948;BME280;41113;41.882;12.530;2023-01-16T13:22:49;99789.94;;;12.58;73.32
54948;BME280;41113;41.882;12.530;2023-01-16T13:25:26;99788.47;;;12.48;74.69
54948;BME280;41113;41.882;12.530;2023-01-16T13:27:59;99779.72;;;12.45;75.52
54948;BME280;41113;41.882;12.530;2023-01-16T13:30:26;99793.38;;;12.36;76.31
54948;BME280;41113;41.882;12.530;2023-01-16T13:32:56;99795.34;;;12.34;76.77
54948;BME280;41113;41.882;12.530;2023-01-16T13:35:24;99786.13;;;12.36;76.46
54948;BME280;41113;41.882;12.530;2023-01-16T13:43:22;99775.84;;;12.32;76.51
54948;BME280;41113;41.882;12.530;2023-01-16T13:46:09;99777.53;;;12.33;76.96
54948;BME280;41113;41.882;12.530;2023-01-16T13:48:36;99774.66;;;12.34;76.90
54948;BME280;41113;41.882;12.530;2023-01-16T13:51:09;99765.41;;;12.29;77.38
54948;BME280;41113;41.882;12.530;2023-01-16T13:53:36;99762.72;;;12.29;77.68
54948;BME280;41113;41.882;12.530;2023-01-16T13:58:40;99765.91;;;12.32;78.58
54948;BME280;41113;41.882;12.530;2023-01-16T14:01:07;99754.97;;;12.34;78.14
54948;BME280;41113;41.882;12.530;2023-01-16T14:06:46;99754.31;;;12.32;78.29
54948;BME280;41113;41.882;12.530;2023-01-16T14:09:20;99745.06;;;12.26;78.35
54948;BME280;41113;41.882;12.530;2023-01-16T14:17:27;99737.16;;;12.25;80.30
54948;BME280;41113;41.882;12.530;2023-01-16T14:22:23;99748.25;;;12.22;81.62
54948;BME280;41113;41.882;12.530;2023-01-16T14:24:55;99746.44;;;12.14;80.70
54948;BME280;41113;41.882;12.530;2023-01-16T14:27:37;99737.00;;;12.18;80.56
54948;BME280;41113;41.882;12.530;2023-01-16T14:30:07;99740.84;;;12.24;79.93
54948;BME280;41113;41.882;12.530;2023-01-16T14:32:45;99741.19;;;12.29;79.32
54948;BME280;41113;41.882;12.530;2023-01-16T14:35:15;99739.00;;;12.32;79.21
54948;BME280;41113;41.882;12.530;2023-01-16T14:37:43;99735.47;;;12.40;78.88
54948;BME280;41113;41.882;12.530;2023-01-16T14:40:20;99735.97;;;12.43;78.55
54948;BME280;41113;41.882;12.530;2023-01-16T14:42:54;99723.84;;;12.39;79.00
54948;BME280;41113;41.882;12.530;2023-01-16T14:45:41;99716.94;;;12.45;78.79
54948;BME280;41113;41.882;12.530;2023-01-16T14:48:35;99724.00;;;12.46;78.20
54948;BME280;41113;41.882;12.530;2023-01-16T14:51:31;99718.13;;;12.42;76.79
54948;BME280;41113;41.882;12.530;2023-01-16T14:54:28;99712.75;;;12.42;77.10
54948;BME280;41113;41.882;12.530;2023-01-16T14:57:18;99699.78;;;12.38;76.01
54948;BME280;41113;41.882;12.530;2023-01-16T14:59:59;99696.44;;;12.36;75.69
54948;BME280;41113;41.882;12.530;2023-01-16T15:02:49;99701.81;;;12.28;75.18
54948;BME280;41113;41.882;12.530;2023-01-16T15:05:22;99698.44;;;12.26;75.15
54948;BME280;41113;41.882;12.530;2023-01-16T15:08:12;99694.91;;;12.25;75.49
54948;BME280;41113;41.882;12.530;2023-01-16T15:10:40;99708.22;;;12.27;75.53
54948;BME280;41113;41.882;12.530;2023-01-16T15:16:06;99716.13;;;12.20;76.07
54948;BME280;41113;41.882;12.530;2023-01-16T15:18:41;99711.25;;;12.15;76.16
54948;BME280;41113;41.882;12.530;2023-01-16T15:21:27;99718.00;;;12.11;76.00
54948;BME280;41113;41.882;12.530;2023-01-16T15:24:16;99715.31;;;12.11;76.54
54948;BME280;41113;41.882;12.530;2023-01-16T15:26:55;99717.00;;;12.04;75.70